Terminal Aerodrome Forecast
Issued by NWS

Home | Current Version | Previous Version | Text Only | Print | Product List | Glossary On
Versions: 1 2 3 4 5 6 7 8 9 10 11 12 13 14 15 16 17
000
FTUS41 KBOX 222327
TAFFMH
TAF
KFMH 222327Z 2300/2324 01015G24KT 1 1/2SM RA OVC003
     FM230400 03013G29KT 1SM -SHRA BR OVC001
     FM231000 02012G29KT 1SM BR VCSH OVC002
     FM231700 02013G25KT P6SM OVC003
     FM232300 03009KT P6SM BKN003=

USA.gov is the U.S. government's official web portal to all federal, state and local government web resources and services.